Tucumcari ASC

April 5, 2020, 9:25 a.m.

  • imperial
Air Temperature RH Dewpoint Wind Chill Heat Index Wind Speed Wind Direction Precipitation Solar Radiation Soil Temperature
Date Time Max Mean Mean Total Total
US/Mountain F % F F F MPH MPH MPH deg. deg. in. MJ/m^2 F
2020-04-04 09:25 40.26 50.91 23.52 38.48 40.26 3.13 5.1 3.0 285.5 250.3 0.0 0.164 52.54
2020-04-04 09:30 40.93 49.37 23.4 40.93 40.93 2.06 3.49 2.08 121.3 310.8 0.0 0.167 52.84
2020-04-04 09:35 40.55 50.73 23.7 37.44 40.55 4.56 6.53 4.3 254.9 252.7 0.0 0.173 53.15
2020-04-04 09:40 40.6 50.49 23.64 37.97 40.6 4.03 6.35 3.78 271.1 217.7 0.0 0.177 53.47
2020-04-04 09:45 41.04 50.04 23.82 41.04 41.04 2.42 3.85 3.06 326.2 294.0 0.0 0.181 53.78
2020-04-04 09:50 40.6 50.76 23.77 37.08 40.6 5.1 6.89 4.83 331.0 315.9 0.0 0.187 54.03
2020-04-04 09:55 42.28 48.44 24.19 38.34 42.28 6.17 6.35 3.83 201.4 294.3 0.0 0.192 54.25
2020-04-04 10:00 42.57 48.27 24.37 40.23 42.57 4.03 7.43 3.04 283.4 236.9 0.0 0.195 54.41
2020-04-04 10:05 42.13 49.73 24.69 42.13 42.13 2.42 7.61 4.9 169.8 256.0 0.0 0.198 54.54
2020-04-04 10:10 43.56 47.82 25.06 40.95 43.56 4.56 4.74 2.44 268.8 295.7 0.0 0.205 54.61
2020-04-04 10:15 43.86 47.41 25.13 39.92 43.86 6.71 8.3 4.52 243.3 228.7 0.0 0.21 54.64
2020-04-04 10:20 43.48 48.29 25.23 39.57 43.48 6.53 7.78 5.59 173.4 206.2 0.0 0.214 54.68
2020-04-04 10:25 43.9 48.66 25.79 43.9 43.9 1.88 7.25 3.69 170.6 177.1 0.0 0.217 54.72
2020-04-04 10:30 44.82 46.3 25.44 41.92 44.82 5.28 7.43 4.18 187.6 214.4 0.0 0.222 54.73
2020-04-04 10:35 44.64 46.17 25.21 44.64 44.64 1.52 7.25 3.74 180.8 199.2 0.0 0.226 54.73
2020-04-04 10:40 45.55 45.59 25.74 42.9 45.55 5.1 8.12 4.7 207.7 201.2 0.0 0.23 54.79
2020-04-04 10:45 46.67 45.07 26.48 43.21 46.67 6.89 6.89 4.88 207.6 174.4 0.0 0.234 54.93
2020-04-04 10:50 46.49 44.39 25.95 43.27 46.49 6.35 7.61 5.21 158.0 188.6 0.0 0.237 55.11
2020-04-04 10:55 47.77 44.94 27.42 45.51 47.77 5.1 6.71 3.98 224.0 188.8 0.0 0.241 55.42
2020-04-04 11:00 46.8 46.51 27.36 43.63 46.8 6.35 13.13 7.61 235.5 254.2 0.0 0.244 55.76
2020-04-04 11:05 47.77 45.07 27.49 44.44 47.77 7.07 9.22 5.57 195.3 198.6 0.0 0.247 56.12
2020-04-04 11:10 48.15 44.32 27.42 45.07 48.15 6.71 6.71 3.91 228.8 202.7 0.0 0.249 56.5
2020-04-04 11:15 48.94 42.68 27.23 44.67 48.94 10.09 11.16 5.64 224.5 241.6 0.0 0.253 56.95
2020-04-04 11:20 48.25 42.95 26.76 45.57 48.25 6.0 10.63 7.58 184.0 212.1 0.0 0.256 57.38
2020-04-04 11:25 48.85 42.74 27.18 47.24 48.85 4.38 9.04 4.47 207.2 204.4 0.0 0.259 57.79
2020-04-04 11:30 49.89 43.49 28.55 47.43 49.89 6.17 9.57 5.08 228.6 215.8 0.0 0.261 58.26
2020-04-04 11:35 49.33 43.97 28.31 45.95 49.33 7.96 13.85 8.28 262.2 228.3 0.0 0.263 58.68
2020-04-04 11:40 51.31 41.82 28.88 51.31 51.31 11.34 12.06 7.67 207.8 246.4 0.0 0.267 59.11
2020-04-04 11:45 51.19 40.79 28.16 51.19 51.19 9.73 11.16 6.98 175.4 199.4 0.0 0.269 59.58
2020-04-04 11:50 50.99 40.93 28.06 50.99 50.99 6.53 10.09 7.94 172.1 177.8 0.0 0.271 59.97
2020-04-04 11:55 51.31 41.44 28.66 51.31 51.31 4.03 9.91 6.33 264.8 206.5 0.0 0.272 60.4
2020-04-04 12:00 52.16 40.42 28.81 52.16 52.16 7.43 13.49 8.77 169.8 221.0 0.0 0.275 60.82
2020-04-04 12:05 51.62 41.65 29.06 51.62 51.62 4.92 10.09 6.33 176.1 195.3 0.0 0.276 61.2
2020-04-04 12:10 53.58 39.49 29.52 53.58 53.58 6.53 7.96 5.35 203.6 191.0 0.0 0.278 61.59
2020-04-04 12:15 53.4 39.46 29.34 53.4 53.4 5.1 10.63 7.36 252.5 243.1 0.0 0.279 61.99
2020-04-04 12:20 54.19 37.69 28.92 54.19 54.19 4.74 10.98 6.17 159.7 220.3 0.0 0.28 62.35
2020-04-04 12:25 54.93 37.41 29.4 54.93 54.93 7.07 9.73 4.27 207.3 159.7 0.0 0.281 62.74
2020-04-04 12:30 54.86 38.37 29.96 54.86 54.86 4.21 6.53 4.0 216.3 221.6 0.0 0.282 63.12
2020-04-04 12:35 56.08 36.66 29.93 56.08 56.08 11.16 13.67 7.07 206.4 224.6 0.0 0.283 63.54
2020-04-04 12:40 55.17 37.07 29.39 55.17 55.17 7.43 14.92 8.72 127.4 169.4 0.0 0.283 63.91
2020-04-04 12:45 55.71 37.07 29.87 55.71 55.71 6.53 13.13 8.14 157.0 170.5 0.0 0.284 64.29
2020-04-04 12:50 55.22 38.36 30.27 55.22 55.22 4.56 9.22 6.26 154.9 157.1 0.0 0.283 64.67
2020-04-04 12:55 55.83 37.78 30.45 55.83 55.83 4.21 10.8 5.97 205.7 166.4 0.0 0.283 65.03
2020-04-04 13:00 56.64 37.17 30.77 56.64 56.64 5.64 8.68 5.01 75.7 135.7 0.0 0.282 65.35
2020-04-04 13:05 57.31 37.17 31.36 57.31 57.31 9.4 9.73 5.12 140.1 83.2 0.0 0.283 65.66
2020-04-04 13:10 57.38 36.86 31.22 57.38 57.38 9.91 9.91 7.52 147.8 154.3 0.0 0.281 65.97
2020-04-04 13:15 58.42 36.11 31.64 58.42 58.42 9.73 10.09 5.39 238.7 184.1 0.0 0.281 66.29
2020-04-04 13:20 58.68 36.25 31.96 58.68 58.68 9.22 12.77 7.45 165.5 202.4 0.0 0.28 66.58
2020-04-04 13:25 58.17 36.79 31.87 58.17 58.17 7.96 11.7 7.4 196.4 174.1 0.0 0.279 66.88
2020-04-04 13:30 58.78 36.55 32.26 58.78 58.78 8.12 12.42 7.74 201.4 204.0 0.0 0.279 67.17
2020-04-04 13:35 60.01 35.36 32.52 60.01 60.01 3.13 8.3 4.18 160.7 179.9 0.0 0.279 67.46
2020-04-04 13:40 60.24 35.18 32.6 60.24 60.24 6.17 11.34 7.78 206.1 170.0 0.0 0.277 67.73
2020-04-04 13:45 61.59 33.54 32.6 61.59 61.59 10.63 13.13 6.49 168.9 164.9 0.0 0.277 68.0
2020-04-04 13:50 60.93 33.44 31.94 60.93 60.93 7.96 12.42 9.28 188.4 170.7 0.0 0.276 68.25
2020-04-04 13:55 60.49 34.77 32.53 60.49 60.49 7.25 10.27 6.76 206.1 211.8 0.0 0.274 68.52
2020-04-04 14:00 61.16 33.54 32.22 61.16 61.16 3.49 11.88 7.94 227.2 182.8 0.0 0.273 68.76
2020-04-04 14:05 60.98 33.44 31.99 60.98 60.98 11.88 14.92 10.07 196.5 177.6 0.0 0.272 69.01
2020-04-04 14:10 62.08 32.76 32.44 62.08 62.08 6.89 9.04 6.08 196.0 173.3 0.0 0.27 69.22
2020-04-04 14:15 62.2 32.11 32.06 62.2 62.2 7.78 14.92 10.65 211.6 187.4 0.0 0.268 69.44
2020-04-04 14:20 62.33 31.77 31.9 62.33 62.33 8.48 12.77 9.26 158.8 184.8 0.0 0.266 69.64
2020-04-04 14:25 61.77 31.8 31.44 61.77 61.77 11.52 12.95 8.63 192.8 161.3 0.0 0.263 69.85
2020-04-04 14:30 62.69 31.19 31.76 62.69 62.69 8.86 12.95 7.58 204.2 200.9 0.0 0.261 70.03
2020-04-04 14:35 63.0 30.95 31.84 63.0 63.0 13.31 13.49 10.56 181.6 177.3 0.0 0.259 70.23
2020-04-04 14:40 62.51 31.08 31.52 62.51 62.51 9.73 14.74 8.1 176.4 178.3 0.0 0.255 70.39
2020-04-04 14:45 62.92 30.64 31.52 62.92 62.92 9.57 14.92 11.34 146.6 169.4 0.0 0.252 70.56
2020-04-04 14:50 63.61 30.33 31.87 63.61 63.61 7.61 11.88 8.28 132.5 156.7 0.0 0.249 70.74
2020-04-04 14:55 63.18 30.67 31.77 63.18 63.18 12.24 13.67 9.55 219.5 200.3 0.0 0.246 70.83
2020-04-04 15:00 64.78 29.82 32.46 64.78 64.78 8.3 13.85 9.19 206.4 195.4 0.0 0.243 70.99
2020-04-04 15:05 64.53 29.0 31.55 64.53 64.53 8.12 13.85 9.37 175.1 190.8 0.0 0.239 71.1
2020-04-04 15:10 64.4 29.54 31.9 64.4 64.4 6.0 14.38 8.97 205.3 186.3 0.0 0.236 71.22
2020-04-04 15:15 64.89 29.65 32.41 64.89 64.89 9.22 14.03 9.4 202.2 178.4 0.0 0.232 71.33
2020-04-04 15:20 65.62 28.86 32.38 65.62 65.62 12.95 14.03 9.22 177.1 197.0 0.0 0.229 71.44
2020-04-04 15:25 64.99 29.13 32.07 64.99 64.99 12.24 15.99 10.72 217.0 198.7 0.0 0.224 71.51
2020-04-04 15:30 64.63 28.21 30.96 64.63 64.63 10.63 15.28 11.54 183.6 199.1 0.0 0.221 71.6
2020-04-04 15:35 65.5 29.03 32.42 65.5 65.5 14.56 14.56 9.91 180.4 183.0 0.0 0.216 71.69
2020-04-04 15:40 65.3 28.31 31.62 65.3 65.3 5.82 15.82 11.72 184.4 178.7 0.0 0.212 71.73
2020-04-04 15:45 65.07 29.0 32.02 65.07 65.07 6.35 12.59 8.75 180.7 191.0 0.0 0.208 71.76
2020-04-04 15:50 65.98 27.7 31.67 65.98 65.98 12.24 14.2 10.25 190.3 195.3 0.0 0.204 71.8
2020-04-04 15:55 65.73 27.43 31.21 65.73 65.73 8.3 14.56 10.0 217.6 181.3 0.0 0.199 71.85
2020-04-04 16:00 66.11 27.56 31.65 66.11 66.11 8.12 11.52 9.26 198.2 167.0 0.0 0.195 71.85
2020-04-04 16:05 66.78 26.95 31.67 66.78 66.78 9.04 15.82 10.07 168.1 202.8 0.0 0.191 71.85
2020-04-04 16:10 66.16 26.91 31.11 66.16 66.16 10.63 15.1 9.75 217.3 192.0 0.0 0.186 71.83
2020-04-04 16:15 66.6 26.78 31.36 66.6 66.6 10.27 11.88 9.62 190.2 175.2 0.0 0.181 71.78
2020-04-04 16:20 66.22 26.64 30.91 66.22 66.22 8.48 14.2 10.16 214.6 194.9 0.0 0.176 71.74
2020-04-04 16:25 66.11 26.37 30.56 66.11 66.11 6.89 13.67 9.87 173.2 191.2 0.0 0.171 71.67
2020-04-04 16:30 66.85 26.03 30.87 66.85 66.85 10.63 13.31 9.42 177.7 178.2 0.0 0.165 71.58
2020-04-04 16:35 66.6 25.99 30.62 66.6 66.6 14.56 15.64 10.72 163.3 178.1 0.0 0.16 71.49
2020-04-04 16:40 66.47 25.75 30.28 66.47 66.47 11.52 16.35 11.97 161.3 156.1 0.0 0.155 71.42
2020-04-04 16:45 66.65 25.79 30.48 66.65 66.65 11.16 15.28 11.1 157.5 157.1 0.0 0.15 71.33
2020-04-04 16:50 66.34 25.79 30.21 66.34 66.34 7.61 15.64 11.79 157.1 162.1 0.0 0.145 71.24
2020-04-04 16:55 66.9 25.04 29.96 66.9 66.9 11.88 13.49 10.18 179.2 175.5 0.0 0.139 71.13
2020-04-04 17:00 67.21 24.7 29.89 67.21 67.21 13.49 15.46 10.98 190.4 181.1 0.0 0.134 71.04
2020-04-04 17:05 66.6 25.72 30.36 66.6 66.6 15.28 17.96 12.48 186.7 176.5 0.0 0.129 70.95
2020-04-04 17:10 66.78 25.72 30.52 66.78 66.78 12.95 15.46 12.06 172.9 169.8 0.0 0.123 70.86
2020-04-04 17:15 66.85 26.51 31.32 66.85 66.85 12.95 12.95 10.36 144.0 167.8 0.0 0.117 70.75
2020-04-04 17:20 66.65 26.61 31.25 66.65 66.65 11.88 15.82 11.68 176.8 164.6 0.0 0.112 70.65
2020-04-04 17:25 66.34 26.1 30.51 66.34 66.34 9.91 16.17 12.55 190.6 175.4 0.0 0.107 70.56
2020-04-04 17:30 66.96 25.38 30.34 66.96 66.96 10.8 15.46 9.87 175.7 171.6 0.0 0.102 70.43
2020-04-04 17:35 66.52 25.93 30.5 66.52 66.52 9.4 16.53 11.57 161.7 178.0 0.0 0.096 70.34
2020-04-04 17:40 66.29 27.26 31.54 66.29 66.29 12.95 15.1 11.52 142.8 172.2 0.0 0.091 70.23
2020-04-04 17:45 66.11 27.09 31.23 66.11 66.11 13.31 15.46 11.07 182.6 160.9 0.0 0.086 70.11
2020-04-04 17:50 66.42 27.39 31.76 66.42 66.42 10.27 14.56 11.01 188.3 181.2 0.0 0.081 70.0
2020-04-04 17:55 66.42 27.6 31.95 66.42 66.42 17.25 17.25 11.21 188.5 172.4 0.0 0.076 69.89
2020-04-04 18:00 65.73 28.35 32.03 65.73 65.73 9.4 16.35 12.89 172.8 172.1 0.0 0.071 69.75
2020-04-04 18:05 65.98 28.25 32.16 65.98 65.98 11.7 11.7 9.87 161.2 157.6 0.0 0.066 69.64
2020-04-04 18:10 65.62 28.15 31.76 65.62 65.62 11.16 15.1 11.34 156.3 155.7 0.0 0.06 69.49
2020-04-04 18:15 65.26 28.45 31.71 65.26 65.26 10.63 16.71 13.09 183.9 162.4 0.0 0.055 69.37
2020-04-04 18:20 65.14 28.42 31.58 65.14 65.14 8.86 13.85 10.67 131.8 161.2 0.0 0.051 69.22
2020-04-04 18:25 64.89 28.8 31.69 64.89 64.89 10.8 15.64 11.97 153.3 160.5 0.0 0.046 69.08
2020-04-04 18:30 64.78 29.24 31.97 64.78 64.78 9.4 12.42 10.16 151.1 160.0 0.0 0.041 68.92
2020-04-04 18:35 64.4 29.41 31.79 64.4 64.4 10.45 16.89 11.45 161.3 163.9 0.0 0.037 68.79
2020-04-04 18:40 64.04 29.89 31.88 64.04 64.04 10.63 15.64 10.58 189.7 161.3 0.0 0.032 68.65
2020-04-04 18:45 63.91 30.06 31.91 63.91 63.91 11.34 13.67 11.79 176.7 175.5 0.0 0.028 68.49
2020-04-04 18:50 63.68 30.71 32.24 63.68 63.68 8.48 14.92 11.3 156.1 169.0 0.0 0.023 68.34
2020-04-04 18:55 63.19 31.15 32.17 63.19 63.19 10.27 17.61 12.57 181.8 171.3 0.0 0.019 68.2
2020-04-04 19:00 62.82 31.53 32.14 62.82 62.82 7.43 14.38 10.38 163.6 167.0 0.0 0.015 68.04
2020-04-04 19:05 62.58 32.01 32.31 62.58 62.58 12.77 13.31 10.83 172.3 165.7 0.0 0.011 67.86
2020-04-04 19:10 62.33 32.21 32.24 62.33 62.33 10.63 15.28 11.7 134.9 159.7 0.0 0.006 67.69
2020-04-04 19:15 61.97 32.83 32.4 61.97 61.97 9.22 14.2 11.03 160.5 160.1 0.0 0.004 67.53
2020-04-04 19:20 61.23 33.71 32.41 61.23 61.23 10.09 11.88 9.62 137.6 155.2 0.0 0.001 67.37
2020-04-04 19:25 60.67 34.74 32.67 60.67 60.67 9.22 12.24 9.46 142.8 157.3 0.0 0.0 67.21
2020-04-04 19:30 60.3 35.35 32.77 60.3 60.3 9.91 12.77 10.07 135.4 156.9 0.0 0.0 67.03
2020-04-04 19:35 59.88 36.03 32.88 59.88 59.88 10.45 12.42 9.73 144.3 156.0 0.0 0.0 66.87
2020-04-04 19:40 59.5 36.68 32.99 59.5 59.5 8.48 11.7 9.55 162.5 152.9 0.0 0.0 66.7
2020-04-04 19:45 59.68 37.06 33.4 59.68 59.68 12.95 18.68 13.18 135.7 153.1 0.0 0.0 66.54
2020-04-04 19:50 59.38 37.47 33.4 59.38 59.38 15.46 19.39 13.85 144.4 151.4 0.0 0.0 66.38
2020-04-04 19:55 58.78 38.09 33.28 58.78 58.78 15.28 16.17 12.86 166.9 152.3 0.0 0.0 66.2
2020-04-04 20:00 58.66 38.29 33.3 58.66 58.66 15.46 17.96 14.25 168.0 157.0 0.0 0.0 66.04
2020-04-04 20:05 58.17 39.11 33.4 58.17 58.17 11.16 16.89 11.86 155.4 152.4 0.0 0.0 65.88
2020-04-04 20:10 57.69 39.79 33.39 57.69 57.69 9.91 14.74 11.43 151.7 151.6 0.0 0.0 65.73
2020-04-04 20:15 57.31 40.2 33.31 57.31 57.31 9.73 15.99 11.83 150.5 152.9 0.0 0.0 65.57
2020-04-04 20:20 57.2 40.48 33.38 57.2 57.2 11.16 19.04 12.97 132.5 154.2 0.0 0.0 65.41
2020-04-04 20:25 56.95 40.75 33.32 56.95 56.95 16.53 16.89 13.27 152.9 153.3 0.0 0.0 65.25
2020-04-04 20:30 56.59 41.1 33.21 56.59 56.59 13.85 16.35 12.28 159.2 156.6 0.0 0.0 65.08
2020-04-04 20:35 56.34 41.44 33.19 56.34 56.34 14.03 16.53 13.78 148.6 160.1 0.0 0.0 64.92
2020-04-04 20:40 56.23 41.71 33.26 56.23 56.23 14.03 19.57 13.71 168.3 163.1 0.0 0.0 64.76
2020-04-04 20:45 55.98 41.92 33.15 55.98 55.98 11.16 15.64 12.42 178.8 167.4 0.0 0.0 64.63
2020-04-04 20:50 55.85 42.05 33.12 55.85 55.85 11.52 14.74 12.5 136.4 166.6 0.0 0.0 64.51
2020-04-04 20:55 55.85 42.19 33.2 55.85 55.85 10.09 15.46 11.74 141.6 162.5 0.0 0.0 64.35
2020-04-04 21:00 55.72 42.46 33.25 55.72 55.72 11.16 15.64 11.01 156.6 165.6 0.0 0.0 64.2
2020-04-04 21:05 55.42 42.87 33.21 55.42 55.42 12.06 12.59 10.87 139.8 163.8 0.0 0.0 64.06
2020-04-04 21:10 55.36 43.25 33.38 55.36 55.36 8.68 14.2 10.67 163.4 164.6 0.0 0.0 63.91
2020-04-04 21:15 54.88 44.0 33.37 54.88 54.88 9.04 13.31 9.13 185.1 168.7 0.0 0.0 63.81
2020-04-04 21:20 54.5 44.72 33.43 54.5 54.5 10.09 10.8 8.43 172.2 170.7 0.0 0.0 63.64
2020-04-04 21:25 54.63 44.96 33.68 54.63 54.63 9.4 12.24 9.33 170.7 171.3 0.0 0.0 63.5
2020-04-04 21:30 54.37 45.54 33.77 54.37 54.37 7.96 11.88 8.59 182.0 176.1 0.0 0.0 63.39
2020-04-04 21:35 54.27 45.88 33.86 54.27 54.27 8.3 12.42 9.22 192.6 181.0 0.0 0.0 63.25
2020-04-04 21:40 54.14 46.91 34.3 54.14 54.14 11.52 12.24 8.66 170.2 184.1 0.0 0.0 63.1
2020-04-04 21:45 53.91 47.46 34.38 53.91 53.91 5.82 10.09 7.72 162.6 183.1 0.0 0.0 63.0
2020-04-04 21:50 53.73 47.87 34.43 53.73 53.73 10.27 10.27 6.71 181.4 167.2 0.0 0.0 62.87
2020-04-04 21:55 54.16 47.6 34.68 54.16 54.16 5.64 12.06 7.45 183.4 174.1 0.0 0.0 62.74
2020-04-04 22:00 53.92 47.81 34.58 53.92 53.92 8.3 8.86 6.49 177.1 165.8 0.0 0.0 62.64
2020-04-04 22:05 53.8 48.22 34.68 53.8 53.8 3.85 6.71 4.52 144.7 145.2 0.0 0.0 62.51
2020-04-04 22:10 53.19 48.83 34.43 53.19 53.19 1.88 4.03 2.33 97.9 114.2 0.0 0.0 62.35
2020-04-04 22:15 52.81 49.68 34.51 52.81 52.81 1.16 2.77 2.21 84.3 91.0 0.0 0.0 62.24
2020-04-04 22:20 52.45 50.44 34.56 52.45 52.45 0.0 1.7 0.81 340.3 296.6 0.0 0.0 62.11
2020-04-04 22:25 52.45 50.71 34.7 52.45 52.45 0.0 1.7 0.45 120.7 45.8 0.0 0.0 61.99
2020-04-04 22:30 52.38 51.77 35.15 52.38 52.38 4.03 4.21 1.83 192.6 336.7 0.0 0.0 61.88
2020-04-04 22:35 52.14 52.72 35.39 52.14 52.14 3.31 6.89 3.85 180.1 208.9 0.0 0.0 61.75
2020-04-04 22:40 52.45 51.9 35.28 52.45 52.45 2.24 5.82 3.65 210.6 153.1 0.0 0.0 61.65
2020-04-04 22:45 52.2 53.13 35.64 52.2 52.2 3.31 5.82 3.53 171.8 176.3 0.0 0.0 61.48
2020-04-04 22:50 52.68 52.45 35.76 52.68 52.68 7.43 10.27 6.55 195.6 191.5 0.0 0.0 61.36
2020-04-04 22:55 52.45 54.02 36.29 52.45 52.45 10.09 12.59 8.46 174.2 173.3 0.0 0.0 61.25
2020-04-04 23:00 52.45 54.84 36.67 52.45 52.45 12.59 13.85 10.13 179.5 187.0 0.0 0.0 61.12
2020-04-04 23:05 52.07 55.52 36.63 52.07 52.07 11.52 13.31 9.62 189.2 186.2 0.0 0.0 61.02
2020-04-04 23:10 51.94 56.27 36.86 51.94 51.94 8.12 13.67 10.92 197.3 182.9 0.0 0.0 60.93
2020-04-04 23:15 51.58 57.03 36.86 51.58 51.58 11.34 12.77 9.78 208.6 187.8 0.0 0.0 60.82
2020-04-04 23:20 51.33 57.71 36.92 51.33 51.33 10.63 13.49 9.51 183.4 188.3 0.0 0.0 60.71
2020-04-04 23:25 51.21 57.98 36.92 51.21 51.21 7.43 12.24 8.77 162.9 188.6 0.0 0.0 60.62
2020-04-04 23:30 50.97 58.6 36.97 50.97 50.97 5.46 12.06 7.63 210.6 187.2 0.0 0.0 60.51
2020-04-04 23:35 50.54 59.55 36.98 50.54 50.54 5.1 7.07 4.79 194.4 193.7 0.0 0.0 60.42
2020-04-04 23:40 50.47 59.79 37.01 50.47 50.47 2.42 5.82 4.12 187.9 207.5 0.0 0.0 60.31
2020-04-04 23:45 50.23 60.37 37.04 50.23 50.23 3.49 4.56 3.27 114.9 191.6 0.0 0.0 60.22
2020-04-04 23:50 50.05 61.12 37.18 50.05 50.05 4.56 5.1 3.42 166.9 177.2 0.0 0.0 60.15
2020-04-04 23:55 49.98 61.4 37.23 48.01 49.98 5.28 8.86 5.08 151.7 164.9 0.0 0.0 60.04
2020-04-05 00:00 50.05 61.13 37.18 50.05 50.05 5.46 6.89 5.06 198.1 168.1 0.0 0.0 59.95
2020-04-05 00:05 49.75 61.95 37.23 45.67 49.75 10.09 10.09 6.17 214.3 188.7 0.0 0.0 59.85
2020-04-05 00:10 49.75 62.02 37.26 45.27 49.75 11.34 12.42 9.06 196.3 190.7 0.0 0.0 59.76
2020-04-05 00:15 49.87 62.06 37.4 46.98 49.87 7.07 14.56 10.94 187.4 182.9 0.0 0.0 59.67
2020-04-05 00:20 49.26 63.26 37.3 44.45 49.26 12.06 13.13 10.42 173.9 183.2 0.0 0.0 59.58
2020-04-05 00:25 49.14 63.73 37.37 44.79 49.14 10.45 16.53 11.95 181.6 184.9 0.0 0.0 59.49
2020-04-05 00:30 48.9 64.49 37.45 44.93 48.9 9.22 16.53 11.79 165.3 182.5 0.0 0.0 59.38
2020-04-05 00:35 48.65 65.1 37.45 44.62 48.65 9.22 13.85 10.94 190.3 181.7 0.0 0.0 59.31
2020-04-05 00:40 48.42 65.41 37.35 44.4 48.42 9.04 11.52 9.17 195.2 183.3 0.0 0.0 59.23
2020-04-05 00:45 47.79 66.4 37.13 45.01 47.79 6.0 9.57 7.0 167.5 178.0 0.0 0.0 59.14
2020-04-05 00:50 47.3 67.22 36.98 45.31 47.3 4.56 7.07 5.1 176.8 170.1 0.0 0.0 59.05
2020-04-05 00:55 47.05 67.83 36.97 47.05 47.05 2.59 4.92 3.15 161.0 175.6 0.0 0.0 58.96
2020-04-05 01:00 46.81 68.59 37.03 46.81 46.81 2.77 2.77 1.01 48.6 162.9 0.0 0.0 58.89
2020-04-05 01:05 46.56 69.13 36.99 46.56 46.56 1.52 2.77 1.34 25.2 29.9 0.0 0.0 58.78
2020-04-05 01:10 46.44 69.2 36.89 46.44 46.44 2.06 2.06 0.92 118.6 72.8 0.0 0.0 58.69
2020-04-05 01:15 46.33 69.55 36.92 46.33 46.33 2.24 4.74 2.1 172.2 155.4 0.0 0.0 58.6
2020-04-05 01:20 46.2 69.85 36.9 46.2 46.2 1.88 2.77 1.16 170.8 186.9 0.0 0.0 58.51
2020-04-05 01:25 46.58 69.07 36.98 45.66 46.58 3.13 5.46 2.59 153.7 162.5 0.0 0.0 58.41
2020-04-05 01:30 46.33 68.93 36.69 44.73 46.33 3.85 4.56 3.11 151.3 165.4 0.0 0.0 58.3
2020-04-05 01:35 46.08 69.72 36.74 44.59 46.08 3.67 5.46 4.14 200.4 182.1 0.0 0.0 58.21
2020-04-05 01:40 46.69 69.0 37.06 44.36 46.69 4.92 9.91 5.55 176.8 191.7 0.0 0.0 58.12
2020-04-05 01:45 46.2 70.03 36.97 41.91 46.2 8.48 9.4 6.4 165.7 178.8 0.0 0.0 58.01
2020-04-05 01:50 45.84 70.95 36.95 41.09 45.84 9.4 9.73 8.61 186.8 178.8 0.0 0.0 57.94
2020-04-05 01:55 45.95 71.15 37.13 41.82 45.95 7.96 11.88 8.55 182.2 177.2 0.0 0.0 57.83
2020-04-05 02:00 45.72 71.08 36.88 42.44 45.72 6.17 8.86 6.78 168.2 172.1 0.0 0.0 57.74
2020-04-05 02:05 45.28 72.21 36.86 41.63 45.28 6.71 8.48 6.76 164.8 167.8 0.0 0.0 57.67
2020-04-05 02:10 44.98 72.69 36.74 41.66 44.98 6.0 6.89 6.11 175.9 162.7 0.0 0.0 57.58
2020-04-05 02:15 45.34 72.35 36.97 40.93 45.34 8.3 12.59 7.78 170.7 173.3 0.0 0.0 57.49
2020-04-05 02:20 45.46 72.62 37.18 41.16 45.46 8.12 10.09 7.11 191.3 181.1 0.0 0.0 57.42
2020-04-05 02:25 45.84 72.49 37.5 41.09 45.84 9.4 10.27 7.74 180.9 185.9 0.0 0.0 57.33
2020-04-05 02:30 46.63 70.78 37.65 40.98 46.63 12.59 13.85 10.92 198.9 190.8 0.0 0.0 57.25
2020-04-05 02:35 46.33 71.26 37.53 40.23 46.33 13.85 17.43 11.43 188.4 180.9 0.0 0.0 57.18
2020-04-05 02:40 46.08 71.73 37.46 42.58 46.08 6.71 12.77 8.7 180.3 183.3 0.0 0.0 57.07
2020-04-05 02:45 45.72 72.55 37.4 43.09 45.72 5.1 10.98 7.27 171.4 186.7 0.0 0.0 57.02
2020-04-05 02:50 45.72 72.45 37.36 44.5 45.72 3.31 7.96 5.21 167.0 186.5 0.0 0.0 56.95
2020-04-05 02:55 45.52 73.07 37.39 45.52 45.52 2.95 6.53 4.3 166.7 175.4 0.0 0.0 56.86
2020-04-05 03:00 45.1 74.26 37.4 43.32 45.1 3.85 4.03 2.95 188.3 152.9 0.0 0.0 56.8
2020-04-05 03:05 44.85 75.12 37.45 41.41 44.85 6.17 6.17 4.63 162.7 162.8 0.0 0.0 56.71
2020-04-05 03:10 44.11 76.35 37.15 39.67 44.11 7.78 8.68 7.11 161.5 165.0 0.0 0.0 56.64
2020-04-05 03:15 43.86 77.2 37.19 38.8 43.86 9.04 11.16 9.06 174.4 164.1 0.0 0.0 56.57
2020-04-05 03:20 44.24 76.59 37.35 39.19 44.24 9.22 11.88 9.46 167.5 172.1 0.0 0.0 56.5
2020-04-05 03:25 44.06 77.0 37.31 39.29 44.06 8.48 10.8 9.48 179.4 170.1 0.0 0.0 56.43
2020-04-05 03:30 44.01 77.07 37.28 40.62 44.01 5.82 12.59 9.24 158.2 173.2 0.0 0.0 56.34
2020-04-05 03:35 43.88 77.89 37.43 38.9 43.88 8.86 10.27 7.81 202.8 178.5 0.0 0.0 56.26
2020-04-05 03:40 44.01 77.69 37.49 39.3 44.01 8.3 11.16 8.28 186.4 184.5 0.0 0.0 56.19
2020-04-05 03:45 43.88 77.93 37.44 39.75 43.88 7.07 9.91 8.32 176.1 180.3 0.0 0.0 56.12
2020-04-05 03:50 43.88 78.31 37.57 39.06 43.88 8.48 9.4 7.61 186.7 182.4 0.0 0.0 56.03
2020-04-05 03:55 43.52 78.72 37.35 39.32 43.52 7.07 9.22 6.82 162.4 182.1 0.0 0.0 55.96
2020-04-05 04:00 43.65 78.45 37.39 41.19 43.65 4.38 7.78 6.08 187.5 182.2 0.0 0.0 55.89
2020-04-05 04:05 43.65 77.9 37.21 40.66 43.65 5.1 6.35 4.59 199.1 190.8 0.0 0.0 55.81
2020-04-05 04:10 43.39 79.03 37.33 40.76 43.39 4.56 6.71 5.41 171.4 186.9 0.0 0.0 55.78
2020-04-05 04:15 43.29 79.89 37.5 40.23 43.29 5.1 6.89 4.76 173.4 182.0 0.0 0.0 55.69
2020-04-05 04:20 43.16 79.48 37.24 43.16 43.16 2.06 4.74 2.37 179.7 166.0 0.0 0.0 55.62
2020-04-05 04:25 42.98 80.2 37.3 42.98 42.98 2.42 2.95 1.95 120.0 137.1 0.0 0.0 55.54
2020-04-05 04:30 42.42 81.0 37.01 42.42 42.42 2.06 3.31 2.48 132.0 119.7 0.0 0.0 55.47
2020-04-05 04:35 42.55 81.7 37.35 42.55 42.55 0.81 3.13 2.3 62.6 131.6 0.0 0.0 55.4
2020-04-05 04:40 42.55 81.6 37.32 42.55 42.55 2.77 4.92 1.52 132.6 149.4 0.0 0.0 55.33
2020-04-05 04:45 42.78 81.2 37.42 42.78 42.78 1.7 2.24 1.7 182.1 153.9 0.0 0.0 55.26
2020-04-05 04:50 43.03 80.8 37.54 41.63 43.03 3.13 4.74 2.57 204.0 191.7 0.0 0.0 55.15
2020-04-05 04:55 42.66 79.96 36.91 42.66 42.66 2.95 5.1 3.91 170.5 178.8 0.0 0.0 55.06
2020-04-05 05:00 42.17 81.6 36.95 42.17 42.17 2.77 2.77 1.99 166.4 162.4 0.0 0.0 54.99
2020-04-05 05:05 42.42 82.1 37.35 40.07 42.42 4.03 5.1 3.94 182.0 188.2 0.0 0.0 54.91
2020-04-05 05:10 42.55 80.2 36.88 40.06 42.55 4.21 5.1 3.96 172.4 178.2 0.0 0.0 54.84
2020-04-05 05:15 42.3 81.1 36.91 39.92 42.3 4.03 4.74 3.69 167.9 172.9 0.0 0.0 54.77
2020-04-05 05:20 41.92 82.4 36.95 39.99 41.92 3.49 4.21 3.69 182.2 183.4 0.0 0.0 54.7
2020-04-05 05:25 41.61 81.9 36.5 41.61 41.61 2.77 4.74 3.2 184.7 185.0 0.0 0.0 54.63
2020-04-05 05:30 41.81 82.1 36.75 38.91 41.81 4.56 5.82 4.34 184.5 196.0 0.0 0.0 54.54
2020-04-05 05:35 41.68 83.5 37.06 39.72 41.68 3.49 5.82 4.52 230.0 199.8 0.0 0.0 54.46
2020-04-05 05:40 41.56 83.0 36.78 39.58 41.56 3.49 4.21 3.36 261.4 245.0 0.0 0.0 54.39
2020-04-05 05:45 41.56 83.0 36.78 37.71 41.56 5.82 5.82 4.56 231.1 246.0 0.0 0.0 54.32
2020-04-05 05:50 41.56 81.2 36.22 39.76 41.56 3.31 6.35 5.03 218.9 218.6 0.0 0.0 54.25
2020-04-05 05:55 41.92 81.6 36.7 39.48 41.92 4.03 4.38 3.69 252.0 242.4 0.0 0.0 54.18
2020-04-05 06:00 42.17 80.8 36.7 39.78 42.17 4.03 5.28 4.41 246.4 245.8 0.0 0.0 54.1
2020-04-05 06:05 42.42 80.5 36.85 40.07 42.42 4.03 6.0 4.21 244.6 239.8 0.0 0.0 54.03
2020-04-05 06:10 42.17 80.2 36.51 39.94 42.17 3.85 3.85 3.13 232.7 239.0 0.0 0.0 53.96
2020-04-05 06:15 42.3 80.4 36.69 39.47 42.3 4.56 5.46 4.27 224.5 234.5 0.0 0.0 53.91
2020-04-05 06:20 42.04 80.3 36.42 39.79 42.04 3.85 4.92 4.03 221.5 228.0 0.0 0.0 53.85
2020-04-05 06:25 40.69 80.3 35.1 38.78 40.69 3.31 4.74 3.47 153.0 192.8 0.0 0.0 53.78
2020-04-05 06:30 39.6 84.7 35.37 39.6 39.6 1.52 3.31 2.37 204.0 182.0 0.0 0.0 53.71
2020-04-05 06:35 40.21 85.5 36.21 40.21 40.21 2.24 2.42 1.81 229.4 223.3 0.0 0.0 53.64
2020-04-05 06:40 40.69 84.6 36.42 40.69 40.69 2.59 3.49 2.91 233.0 231.7 0.0 0.001 53.56
2020-04-05 06:45 40.33 83.8 35.82 37.65 40.33 4.03 4.03 3.0 214.9 222.9 0.0 0.003 53.51
2020-04-05 06:50 40.46 84.8 36.25 38.51 40.46 3.31 3.85 3.29 240.0 232.7 0.0 0.007 53.42
2020-04-05 06:55 40.26 83.0 35.51 37.74 40.26 3.85 4.03 3.11 224.5 235.8 0.0 0.015 53.35
2020-04-05 07:00 40.77 83.6 36.19 40.77 40.77 2.77 4.38 3.11 216.2 228.6 0.0 0.02 53.28
2020-04-05 07:05 41.25 82.4 36.3 37.34 41.25 5.82 5.82 3.98 217.4 222.5 0.0 0.025 53.2
2020-04-05 07:10 41.68 81.8 36.53 39.91 41.68 3.31 6.17 3.78 230.0 232.7 0.0 0.029 53.15
2020-04-05 07:15 42.04 81.1 36.67 39.33 42.04 4.38 5.28 3.89 194.0 200.2 0.0 0.034 53.1
2020-04-05 07:20 42.66 79.28 36.69 42.66 42.66 2.95 4.56 3.51 251.5 220.4 0.0 0.039 53.06
2020-04-05 07:25 43.09 78.87 36.98 40.84 43.09 4.03 4.38 3.58 260.6 241.0 0.0 0.044 53.04
2020-04-05 07:30 43.52 77.91 37.09 42.0 43.52 3.31 4.56 3.67 232.8 229.2 0.0 0.049 53.02
2020-04-05 07:35 44.26 76.78 37.43 41.76 44.26 4.56 5.28 4.0 249.1 236.1 0.0 0.054 53.04
2020-04-05 07:40 44.76 75.21 37.39 42.63 44.76 4.21 5.82 4.03 243.9 242.9 0.0 0.059 53.06
2020-04-05 07:45 45.63 72.89 37.43 43.77 45.63 4.03 4.74 3.8 235.8 234.6 0.0 0.064 53.1
2020-04-05 07:50 45.73 72.92 37.55 43.0 45.73 5.28 5.64 4.3 238.5 255.9 0.0 0.069 53.19
2020-04-05 07:55 46.35 71.35 37.58 43.84 46.35 5.1 6.53 5.01 265.4 251.1 0.0 0.075 53.28
2020-04-05 08:00 46.85 70.42 37.73 44.43 46.85 5.1 6.71 5.17 226.5 234.0 0.0 0.08 53.42
2020-04-05 08:05 47.14 69.08 37.52 45.13 47.14 4.56 6.17 4.94 259.0 239.1 0.0 0.085 53.55
2020-04-05 08:10 47.68 65.8 36.8 45.76 47.68 4.56 5.1 4.3 211.9 216.8 0.0 0.09 53.71
2020-04-05 08:15 48.06 65.66 37.1 46.45 48.06 4.21 4.74 4.07 210.0 214.6 0.0 0.095 53.85
2020-04-05 08:20 48.29 64.77 36.98 46.85 48.29 4.03 5.28 3.65 250.8 244.6 0.0 0.101 54.03
2020-04-05 08:25 48.97 63.06 36.95 48.97 48.97 2.95 4.92 2.98 218.5 221.2 0.0 0.106 54.21
2020-04-05 08:30 49.28 62.17 36.88 47.51 49.28 4.74 4.74 3.15 241.5 210.5 0.0 0.112 54.43
2020-04-05 08:35 49.28 62.3 36.93 48.0 49.28 4.03 5.1 3.6 276.3 240.9 0.0 0.116 54.61
2020-04-05 08:40 50.13 60.25 36.88 50.13 50.13 3.31 4.21 2.55 234.0 278.6 0.0 0.123 54.81
2020-04-05 08:45 50.54 60.58 37.41 50.54 50.54 4.21 4.56 2.8 248.6 231.9 0.0 0.128 55.02
2020-04-05 08:50 50.49 59.86 37.06 50.49 50.49 2.24 5.64 3.8 327.2 263.9 0.0 0.135 55.24
2020-04-05 08:55 51.03 59.18 37.28 51.03 51.03 4.21 4.21 2.55 212.5 276.9 0.0 0.142 55.47
2020-04-05 09:00 51.4 57.85 37.05 51.4 51.4 2.42 6.0 3.76 285.0 247.8 0.0 0.146 55.74
2020-04-05 09:05 51.94 56.92 37.15 51.94 51.94 6.71 6.71 3.22 237.0 245.2 0.0 0.144 56.03
2020-04-05 09:10 52.27 56.21 37.13 52.27 52.27 4.21 7.07 4.59 256.6 239.3 0.0 0.146 56.3
2020-04-05 09:15 52.93 55.04 37.22 52.93 52.93 5.82 7.43 4.34 281.3 265.9 0.0 0.148 56.62
2020-04-05 09:20 54.46 52.31 37.35 54.46 54.46 5.64 6.89 4.07 209.6 245.0 0.0 0.149 56.93
2020-04-05 09:25 55.13 51.18 37.41 55.13 55.13 5.1 5.28 4.05 168.5 206.6 0.0 0.166 57.24

Data is courtesy of the NM Climate Center. DO NOT USE IN LEGAL PROCEEDINGS.